sensor_id;sensor_type;location;lat;lon;timestamp;pressure;altitude;pressure_sealevel;temperature;humidity
34065;BME280;20339;49.754;20.158;2023-06-22T00:00:31;96873.31;;;19.71;77.72
34065;BME280;20339;49.754;20.158;2023-06-22T00:03:23;96874.89;;;19.70;77.74
34065;BME280;20339;49.754;20.158;2023-06-22T00:05:56;96874.77;;;19.71;77.71
34065;BME280;20339;49.754;20.158;2023-06-22T00:08:33;96875.98;;;19.74;77.87
34065;BME280;20339;49.754;20.158;2023-06-22T00:11:09;96871.07;;;19.77;77.73
34065;BME280;20339;49.754;20.158;2023-06-22T00:13:43;96872.37;;;19.79;77.71
34065;BME280;20339;49.754;20.158;2023-06-22T00:16:15;96870.54;;;19.86;77.71
34065;BME280;20339;49.754;20.158;2023-06-22T00:18:48;96871.16;;;19.90;77.69
34065;BME280;20339;49.754;20.158;2023-06-22T00:21:19;96868.29;;;19.95;77.46
34065;BME280;20339;49.754;20.158;2023-06-22T00:23:51;96870.10;;;19.98;77.31
34065;BME280;20339;49.754;20.158;2023-06-22T00:26:23;96871.73;;;20.00;77.20
34065;BME280;20339;49.754;20.158;2023-06-22T00:28:57;96877.05;;;20.03;77.08
34065;BME280;20339;49.754;20.158;2023-06-22T00:31:28;96879.56;;;20.05;77.09
34065;BME280;20339;49.754;20.158;2023-06-22T00:34:01;96875.42;;;20.07;76.96
34065;BME280;20339;49.754;20.158;2023-06-22T00:36:36;96873.27;;;20.07;77.03
34065;BME280;20339;49.754;20.158;2023-06-22T00:39:10;96868.70;;;20.07;77.05
34065;BME280;20339;49.754;20.158;2023-06-22T00:41:41;96870.23;;;20.06;77.22
34065;BME280;20339;49.754;20.158;2023-06-22T00:44:13;96873.20;;;20.07;77.30
34065;BME280;20339;49.754;20.158;2023-06-22T00:46:44;96876.27;;;20.10;77.48
34065;BME280;20339;49.754;20.158;2023-06-22T00:49:15;96877.64;;;20.12;77.72
34065;BME280;20339;49.754;20.158;2023-06-22T00:51:47;96874.27;;;20.12;77.57
34065;BME280;20339;49.754;20.158;2023-06-22T00:54:19;96884.16;;;20.13;77.72
34065;BME280;20339;49.754;20.158;2023-06-22T00:56:54;96892.41;;;20.15;77.95
34065;BME280;20339;49.754;20.158;2023-06-22T00:59:27;96893.76;;;20.20;77.99
34065;BME280;20339;49.754;20.158;2023-06-22T01:01:58;96892.32;;;20.23;77.91
34065;BME280;20339;49.754;20.158;2023-06-22T01:04:37;96892.39;;;20.23;77.94
34065;BME280;20339;49.754;20.158;2023-06-22T01:07:10;96886.39;;;20.20;77.72
34065;BME280;20339;49.754;20.158;2023-06-22T01:09:51;96878.66;;;20.19;77.89
34065;BME280;20339;49.754;20.158;2023-06-22T01:12:26;96872.14;;;20.19;77.89
34065;BME280;20339;49.754;20.158;2023-06-22T01:15:04;96870.20;;;20.16;77.76
34065;BME280;20339;49.754;20.158;2023-06-22T01:17:42;96861.13;;;20.11;77.94
34065;BME280;20339;49.754;20.158;2023-06-22T01:20:14;96853.36;;;20.05;77.80
34065;BME280;20339;49.754;20.158;2023-06-22T01:23:01;96853.70;;;19.99;77.89
34065;BME280;20339;49.754;20.158;2023-06-22T01:25:40;96856.59;;;19.96;78.11
34065;BME280;20339;49.754;20.158;2023-06-22T01:28:23;96858.96;;;19.96;78.16
34065;BME280;20339;49.754;20.158;2023-06-22T01:30:56;96853.25;;;19.95;78.43
34065;BME280;20339;49.754;20.158;2023-06-22T01:33:36;96854.52;;;19.94;78.51
34065;BME280;20339;49.754;20.158;2023-06-22T01:36:10;96856.70;;;19.93;78.68
34065;BME280;20339;49.754;20.158;2023-06-22T01:38:43;96864.70;;;19.93;78.75
34065;BME280;20339;49.754;20.158;2023-06-22T01:41:16;96865.45;;;19.94;78.86
34065;BME280;20339;49.754;20.158;2023-06-22T01:43:49;96868.23;;;19.97;79.10
34065;BME280;20339;49.754;20.158;2023-06-22T01:46:21;96865.80;;;19.98;79.08
34065;BME280;20339;49.754;20.158;2023-06-22T01:48:54;96875.56;;;19.96;78.90
34065;BME280;20339;49.754;20.158;2023-06-22T01:51:25;96880.73;;;19.94;79.00
34065;BME280;20339;49.754;20.158;2023-06-22T01:53:57;96875.02;;;19.93;79.07
34065;BME280;20339;49.754;20.158;2023-06-22T01:56:29;96873.63;;;19.93;78.97
34065;BME280;20339;49.754;20.158;2023-06-22T01:59:13;96882.21;;;19.92;79.03
34065;BME280;20339;49.754;20.158;2023-06-22T02:01:54;96875.39;;;19.88;78.91
34065;BME280;20339;49.754;20.158;2023-06-22T02:04:34;96882.23;;;19.80;78.92
34065;BME280;20339;49.754;20.158;2023-06-22T02:07:12;96889.67;;;19.77;79.05
34065;BME280;20339;49.754;20.158;2023-06-22T02:09:48;96889.91;;;19.75;79.19
34065;BME280;20339;49.754;20.158;2023-06-22T02:12:24;96890.99;;;19.75;79.34
34065;BME280;20339;49.754;20.158;2023-06-22T02:14:58;96887.81;;;19.74;79.24
34065;BME280;20339;49.754;20.158;2023-06-22T02:17:32;96886.33;;;19.70;79.33
34065;BME280;20339;49.754;20.158;2023-06-22T02:20:06;96888.50;;;19.53;78.98
34065;BME280;20339;49.754;20.158;2023-06-22T02:22:43;96893.81;;;19.35;79.58
34065;BME280;20339;49.754;20.158;2023-06-22T02:25:15;96898.52;;;19.26;79.88
34065;BME280;20339;49.754;20.158;2023-06-22T02:27:47;96901.23;;;19.20;80.39
34065;BME280;20339;49.754;20.158;2023-06-22T02:30:18;96901.00;;;19.20;80.74
34065;BME280;20339;49.754;20.158;2023-06-22T02:32:50;96900.27;;;19.18;80.91
34065;BME280;20339;49.754;20.158;2023-06-22T02:35:28;96900.52;;;19.21;81.28
34065;BME280;20339;49.754;20.158;2023-06-22T02:38:02;96898.45;;;19.26;81.41
34065;BME280;20339;49.754;20.158;2023-06-22T02:40:34;96899.98;;;19.29;81.63
34065;BME280;20339;49.754;20.158;2023-06-22T02:43:05;96896.73;;;19.31;81.41
34065;BME280;20339;49.754;20.158;2023-06-22T02:45:36;96900.95;;;19.29;81.43
34065;BME280;20339;49.754;20.158;2023-06-22T02:48:08;96901.05;;;19.26;81.63
34065;BME280;20339;49.754;20.158;2023-06-22T02:50:41;96897.64;;;19.25;81.94
34065;BME280;20339;49.754;20.158;2023-06-22T02:53:13;96902.77;;;19.27;82.08
34065;BME280;20339;49.754;20.158;2023-06-22T02:55:44;96905.36;;;19.30;82.26
34065;BME280;20339;49.754;20.158;2023-06-22T02:58:16;96905.23;;;19.32;82.46
34065;BME280;20339;49.754;20.158;2023-06-22T03:00:47;96909.50;;;19.36;82.41
34065;BME280;20339;49.754;20.158;2023-06-22T03:03:22;96908.92;;;19.37;82.27
34065;BME280;20339;49.754;20.158;2023-06-22T03:05:58;96913.35;;;19.36;82.34
34065;BME280;20339;49.754;20.158;2023-06-22T03:08:30;96912.11;;;19.38;82.43
34065;BME280;20339;49.754;20.158;2023-06-22T03:11:02;96911.61;;;19.39;82.57
34065;BME280;20339;49.754;20.158;2023-06-22T03:13:33;96912.82;;;19.38;82.51
34065;BME280;20339;49.754;20.158;2023-06-22T03:16:04;96912.67;;;19.38;82.78
34065;BME280;20339;49.754;20.158;2023-06-22T03:18:35;96908.66;;;19.40;82.77
34065;BME280;20339;49.754;20.158;2023-06-22T03:21:07;96908.04;;;19.40;82.71
34065;BME280;20339;49.754;20.158;2023-06-22T03:23:39;96903.66;;;19.38;82.78
34065;BME280;20339;49.754;20.158;2023-06-22T03:26:11;96901.85;;;19.39;82.85
34065;BME280;20339;49.754;20.158;2023-06-22T03:28:42;96906.09;;;19.39;82.90
34065;BME280;20339;49.754;20.158;2023-06-22T03:31:14;96909.25;;;19.39;82.96
34065;BME280;20339;49.754;20.158;2023-06-22T03:33:45;96915.41;;;19.40;83.13
34065;BME280;20339;49.754;20.158;2023-06-22T03:36:17;96919.70;;;19.42;83.16
34065;BME280;20339;49.754;20.158;2023-06-22T03:38:54;96926.30;;;19.45;83.36
34065;BME280;20339;49.754;20.158;2023-06-22T03:41:28;96930.10;;;19.48;83.36
34065;BME280;20339;49.754;20.158;2023-06-22T03:44:01;96930.47;;;19.52;83.39
34065;BME280;20339;49.754;20.158;2023-06-22T03:46:38;96932.60;;;19.57;83.31
34065;BME280;20339;49.754;20.158;2023-06-22T03:49:12;96934.26;;;19.60;83.23
34065;BME280;20339;49.754;20.158;2023-06-22T03:51:47;96933.61;;;19.64;83.19
34065;BME280;20339;49.754;20.158;2023-06-22T03:54:25;96940.23;;;19.66;83.17
34065;BME280;20339;49.754;20.158;2023-06-22T03:57:22;96942.33;;;19.67;83.03
34065;BME280;20339;49.754;20.158;2023-06-22T03:59:58;96941.80;;;19.65;83.13
34065;BME280;20339;49.754;20.158;2023-06-22T04:02:36;96949.61;;;19.66;83.09
34065;BME280;20339;49.754;20.158;2023-06-22T04:05:09;96950.64;;;19.67;83.14
34065;BME280;20339;49.754;20.158;2023-06-22T04:07:40;96951.39;;;19.69;83.22
34065;BME280;20339;49.754;20.158;2023-06-22T04:10:15;96951.98;;;19.72;83.20
34065;BME280;20339;49.754;20.158;2023-06-22T04:12:51;96948.54;;;19.74;83.16
34065;BME280;20339;49.754;20.158;2023-06-22T04:15:26;96954.22;;;19.76;83.18
34065;BME280;20339;49.754;20.158;2023-06-22T04:18:00;96948.46;;;19.79;83.16
34065;BME280;20339;49.754;20.158;2023-06-22T04:20:35;96948.29;;;19.85;83.17
34065;BME280;20339;49.754;20.158;2023-06-22T04:23:08;96949.84;;;19.89;83.18
34065;BME280;20339;49.754;20.158;2023-06-22T04:25:47;96955.05;;;19.93;83.21
34065;BME280;20339;49.754;20.158;2023-06-22T04:28:20;96961.79;;;19.94;82.95
34065;BME280;20339;49.754;20.158;2023-06-22T04:30:51;96962.68;;;19.96;82.97
34065;BME280;20339;49.754;20.158;2023-06-22T04:33:25;96961.44;;;19.99;82.98
34065;BME280;20339;49.754;20.158;2023-06-22T04:36:01;96965.55;;;20.05;83.00
34065;BME280;20339;49.754;20.158;2023-06-22T04:38:36;96966.20;;;20.10;83.02
34065;BME280;20339;49.754;20.158;2023-06-22T04:41:16;96970.09;;;20.18;83.17
34065;BME280;20339;49.754;20.158;2023-06-22T04:43:53;96976.21;;;20.28;83.10
34065;BME280;20339;49.754;20.158;2023-06-22T04:46:32;96978.17;;;20.38;82.92
34065;BME280;20339;49.754;20.158;2023-06-22T04:49:09;96976.59;;;20.47;82.93
34065;BME280;20339;49.754;20.158;2023-06-22T04:51:42;96978.48;;;20.57;82.79
34065;BME280;20339;49.754;20.158;2023-06-22T04:54:16;96976.66;;;20.67;82.76
34065;BME280;20339;49.754;20.158;2023-06-22T04:56:48;96976.91;;;20.78;82.60
34065;BME280;20339;49.754;20.158;2023-06-22T04:59:32;96981.34;;;20.90;82.58
34065;BME280;20339;49.754;20.158;2023-06-22T05:02:05;96981.79;;;21.02;82.37
34065;BME280;20339;49.754;20.158;2023-06-22T05:04:39;96986.88;;;21.14;82.33
34065;BME280;20339;49.754;20.158;2023-06-22T05:07:14;96982.05;;;21.24;81.98
34065;BME280;20339;49.754;20.158;2023-06-22T05:09:48;96984.06;;;21.34;81.87
34065;BME280;20339;49.754;20.158;2023-06-22T05:12:19;96982.50;;;21.49;81.98
34065;BME280;20339;49.754;20.158;2023-06-22T05:14:53;96981.05;;;21.65;81.58
34065;BME280;20339;49.754;20.158;2023-06-22T05:17:24;96978.01;;;21.82;81.11
34065;BME280;20339;49.754;20.158;2023-06-22T05:19:57;96973.94;;;21.99;80.55
34065;BME280;20339;49.754;20.158;2023-06-22T05:22:30;96973.20;;;22.16;80.35
34065;BME280;20339;49.754;20.158;2023-06-22T05:25:02;96973.52;;;22.51;80.85
34065;BME280;20339;49.754;20.158;2023-06-22T05:27:33;96976.72;;;23.26;80.79
34065;BME280;20339;49.754;20.158;2023-06-22T05:30:11;96981.87;;;24.34;80.11
34065;BME280;20339;49.754;20.158;2023-06-22T05:32:44;96983.95;;;25.30;77.42
34065;BME280;20339;49.754;20.158;2023-06-22T05:35:15;96989.35;;;25.49;74.39
34065;BME280;20339;49.754;20.158;2023-06-22T05:37:47;96996.31;;;25.02;72.59
34065;BME280;20339;49.754;20.158;2023-06-22T05:40:19;97002.71;;;24.58;72.66
34065;BME280;20339;49.754;20.158;2023-06-22T05:42:50;97005.89;;;24.22;72.76
34065;BME280;20339;49.754;20.158;2023-06-22T05:45:21;97006.16;;;23.94;72.72
34065;BME280;20339;49.754;20.158;2023-06-22T05:47:52;97004.03;;;23.67;72.78
34065;BME280;20339;49.754;20.158;2023-06-22T05:50:24;97000.04;;;23.46;73.15
34065;BME280;20339;49.754;20.158;2023-06-22T05:52:56;96995.72;;;23.39;73.32
34065;BME280;20339;49.754;20.158;2023-06-22T05:55:29;96989.45;;;23.77;75.16
34065;BME280;20339;49.754;20.158;2023-06-22T05:58:00;96988.33;;;24.73;75.32
34065;BME280;20339;49.754;20.158;2023-06-22T06:00:36;96981.13;;;25.22;71.83
34065;BME280;20339;49.754;20.158;2023-06-22T06:03:11;96990.14;;;25.00;70.86
34065;BME280;20339;49.754;20.158;2023-06-22T06:05:47;96986.08;;;24.95;71.63
34065;BME280;20339;49.754;20.158;2023-06-22T06:08:18;96990.80;;;25.07;70.88
34065;BME280;20339;49.754;20.158;2023-06-22T06:10:50;96992.05;;;25.07;70.41
34065;BME280;20339;49.754;20.158;2023-06-22T06:13:25;96991.23;;;25.19;70.87
34065;BME280;20339;49.754;20.158;2023-06-22T06:16:00;96993.44;;;25.52;71.47
34065;BME280;20339;49.754;20.158;2023-06-22T06:18:32;96995.37;;;26.34;70.29
34065;BME280;20339;49.754;20.158;2023-06-22T06:21:05;97003.11;;;26.88;69.49
34065;BME280;20339;49.754;20.158;2023-06-22T06:23:39;97003.90;;;27.47;68.90
34065;BME280;20339;49.754;20.158;2023-06-22T06:26:13;97000.65;;;28.35;67.84
34065;BME280;20339;49.754;20.158;2023-06-22T06:28:47;97000.43;;;29.22;66.41
34065;BME280;20339;49.754;20.158;2023-06-22T06:31:19;97001.23;;;29.81;64.46
34065;BME280;20339;49.754;20.158;2023-06-22T06:33:51;97003.13;;;30.05;63.02
34065;BME280;20339;49.754;20.158;2023-06-22T06:36:29;97007.48;;;30.14;61.55
34065;BME280;20339;49.754;20.158;2023-06-22T06:39:05;97013.30;;;29.47;60.17
34065;BME280;20339;49.754;20.158;2023-06-22T06:41:38;97016.41;;;28.60;59.91
34065;BME280;20339;49.754;20.158;2023-06-22T06:44:20;97018.89;;;27.87;60.36
34065;BME280;20339;49.754;20.158;2023-06-22T06:47:00;97023.02;;;27.25;61.00
34065;BME280;20339;49.754;20.158;2023-06-22T06:49:38;97027.63;;;26.70;61.93
34065;BME280;20339;49.754;20.158;2023-06-22T06:52:20;97025.01;;;26.37;62.36
34065;BME280;20339;49.754;20.158;2023-06-22T06:55:02;97022.05;;;26.12;63.33
34065;BME280;20339;49.754;20.158;2023-06-22T06:57:41;97025.73;;;25.96;63.83
34065;BME280;20339;49.754;20.158;2023-06-22T07:00:26;97021.08;;;25.85;64.54
34065;BME280;20339;49.754;20.158;2023-06-22T07:03:06;97023.35;;;26.03;64.65
34065;BME280;20339;49.754;20.158;2023-06-22T07:05:46;97020.48;;;26.04;64.51
34065;BME280;20339;49.754;20.158;2023-06-22T07:08:22;97014.70;;;26.39;65.06
34065;BME280;20339;49.754;20.158;2023-06-22T07:10:55;97016.44;;;26.85;64.07
34065;BME280;20339;49.754;20.158;2023-06-22T07:13:30;97019.42;;;27.03;63.73
34065;BME280;20339;49.754;20.158;2023-06-22T07:19:02;97030.88;;;27.33;63.43
34065;BME280;20339;49.754;20.158;2023-06-22T07:21:39;97032.35;;;27.32;62.42
34065;BME280;20339;49.754;20.158;2023-06-22T07:24:13;97028.70;;;27.05;62.15
34065;BME280;20339;49.754;20.158;2023-06-22T07:27:10;97025.85;;;26.63;62.08
34065;BME280;20339;49.754;20.158;2023-06-22T07:29:48;97025.46;;;26.30;62.67
34065;BME280;20339;49.754;20.158;2023-06-22T07:32:29;97029.77;;;26.02;63.06
34065;BME280;20339;49.754;20.158;2023-06-22T07:35:12;97027.46;;;25.91;63.87
34065;BME280;20339;49.754;20.158;2023-06-22T07:37:50;97027.32;;;25.98;64.22
34065;BME280;20339;49.754;20.158;2023-06-22T07:40:37;97025.92;;;26.05;64.70
34065;BME280;20339;49.754;20.158;2023-06-22T07:43:21;97021.89;;;26.11;64.59
34065;BME280;20339;49.754;20.158;2023-06-22T07:45:57;97018.20;;;26.14;64.75
34065;BME280;20339;49.754;20.158;2023-06-22T07:48:38;97012.81;;;26.13;64.59
34065;BME280;20339;49.754;20.158;2023-06-22T07:51:15;97009.83;;;26.03;64.73
34065;BME280;20339;49.754;20.158;2023-06-22T07:53:51;97004.33;;;25.91;64.29
34065;BME280;20339;49.754;20.158;2023-06-22T07:56:30;97005.79;;;25.73;64.12
34065;BME280;20339;49.754;20.158;2023-06-22T07:59:11;97006.90;;;25.75;65.12
34065;BME280;20339;49.754;20.158;2023-06-22T08:01:47;97002.72;;;26.12;65.61
34065;BME280;20339;49.754;20.158;2023-06-22T08:04:23;97003.91;;;26.46;65.39
34065;BME280;20339;49.754;20.158;2023-06-22T08:06:59;97002.55;;;26.80;64.67
34065;BME280;20339;49.754;20.158;2023-06-22T08:09:34;97007.02;;;27.07;64.03
34065;BME280;20339;49.754;20.158;2023-06-22T08:12:10;97011.93;;;27.28;63.55
34065;BME280;20339;49.754;20.158;2023-06-22T08:14:44;97012.20;;;27.54;63.36
34065;BME280;20339;49.754;20.158;2023-06-22T08:17:24;97015.36;;;27.99;63.13
34065;BME280;20339;49.754;20.158;2023-06-22T08:20:07;97014.88;;;28.46;62.55
34065;BME280;20339;49.754;20.158;2023-06-22T08:22:46;97014.35;;;28.51;61.56
34065;BME280;20339;49.754;20.158;2023-06-22T08:25:18;97019.78;;;28.75;61.37
34065;BME280;20339;49.754;20.158;2023-06-22T08:28:01;97021.81;;;28.75;60.30
34065;BME280;20339;49.754;20.158;2023-06-22T08:30:47;97026.60;;;28.36;59.84
34065;BME280;20339;49.754;20.158;2023-06-22T08:33:24;97030.52;;;28.06;59.97
34065;BME280;20339;49.754;20.158;2023-06-22T08:36:01;97030.89;;;28.03;60.64
34065;BME280;20339;49.754;20.158;2023-06-22T08:38:42;97031.79;;;27.97;60.63
34065;BME280;20339;49.754;20.158;2023-06-22T08:41:25;97025.00;;;27.94;60.76
34065;BME280;20339;49.754;20.158;2023-06-22T08:44:07;97027.15;;;27.88;60.53
34065;BME280;20339;49.754;20.158;2023-06-22T08:46:50;97027.06;;;27.53;60.67
34065;BME280;20339;49.754;20.158;2023-06-22T08:49:31;97027.09;;;27.28;61.27
34065;BME280;20339;49.754;20.158;2023-06-22T08:52:14;97026.77;;;27.07;61.40
34065;BME280;20339;49.754;20.158;2023-06-22T08:54:48;97030.28;;;26.85;61.68
34065;BME280;20339;49.754;20.158;2023-06-22T08:57:28;97037.41;;;26.69;62.17
34065;BME280;20339;49.754;20.158;2023-06-22T09:00:28;97033.30;;;26.76;62.90
34065;BME280;20339;49.754;20.158;2023-06-22T09:03:08;97026.02;;;26.95;63.02
34065;BME280;20339;49.754;20.158;2023-06-22T09:05:46;97023.52;;;26.93;63.04
34065;BME280;20339;49.754;20.158;2023-06-22T09:08:21;97028.72;;;26.93;63.37
34065;BME280;20339;49.754;20.158;2023-06-22T09:10:56;97034.38;;;26.90;63.26
34065;BME280;20339;49.754;20.158;2023-06-22T09:13:27;97035.14;;;26.83;63.66
34065;BME280;20339;49.754;20.158;2023-06-22T09:15:59;97034.76;;;26.68;63.63
34065;BME280;20339;49.754;20.158;2023-06-22T09:18:31;97030.78;;;26.45;63.40
34065;BME280;20339;49.754;20.158;2023-06-22T09:21:03;97030.79;;;26.28;64.15
34065;BME280;20339;49.754;20.158;2023-06-22T09:23:37;97031.31;;;26.19;64.14
34065;BME280;20339;49.754;20.158;2023-06-22T09:26:10;97031.70;;;26.08;64.37
34065;BME280;20339;49.754;20.158;2023-06-22T09:28:41;97028.27;;;26.00;64.50
34065;BME280;20339;49.754;20.158;2023-06-22T09:31:13;97027.40;;;25.87;64.61
34065;BME280;20339;49.754;20.158;2023-06-22T09:33:58;97028.46;;;25.75;65.20
34065;BME280;20339;49.754;20.158;2023-06-22T09:36:54;97027.45;;;26.03;66.70
34065;BME280;20339;49.754;20.158;2023-06-22T09:39:32;97026.99;;;26.21;66.36
34065;BME280;20339;49.754;20.158;2023-06-22T09:42:10;97033.11;;;26.14;65.49
34065;BME280;20339;49.754;20.158;2023-06-22T09:44:47;97032.34;;;26.03;65.29
34065;BME280;20339;49.754;20.158;2023-06-22T09:47:19;97033.35;;;26.09;65.37
34065;BME280;20339;49.754;20.158;2023-06-22T09:49:54;97035.48;;;26.19;65.33
34065;BME280;20339;49.754;20.158;2023-06-22T09:52:29;97033.14;;;26.35;65.47
34065;BME280;20339;49.754;20.158;2023-06-22T09:55:25;97034.36;;;26.39;64.81
34065;BME280;20339;49.754;20.158;2023-06-22T10:01:09;97034.21;;;26.40;65.00
34065;BME280;20339;49.754;20.158;2023-06-22T10:03:46;97030.48;;;26.46;65.27
34065;BME280;20339;49.754;20.158;2023-06-22T10:06:21;97027.09;;;26.47;65.01
34065;BME280;20339;49.754;20.158;2023-06-22T10:08:56;97024.71;;;26.58;65.93
34065;BME280;20339;49.754;20.158;2023-06-22T10:11:31;97029.78;;;26.68;65.69
34065;BME280;20339;49.754;20.158;2023-06-22T10:14:09;97028.11;;;26.63;65.75
34065;BME280;20339;49.754;20.158;2023-06-22T10:16:48;97026.70;;;26.55;65.22
34065;BME280;20339;49.754;20.158;2023-06-22T10:19:26;97022.12;;;26.48;64.88
34065;BME280;20339;49.754;20.158;2023-06-22T10:22:15;97021.35;;;26.49;65.41
34065;BME280;20339;49.754;20.158;2023-06-22T10:25:03;97021.83;;;26.72;65.63
34065;BME280;20339;49.754;20.158;2023-06-22T10:27:39;97021.30;;;26.74;64.88
34065;BME280;20339;49.754;20.158;2023-06-22T10:30:24;97016.17;;;26.58;63.87
34065;BME280;20339;49.754;20.158;2023-06-22T10:33:04;97019.84;;;26.61;64.45
34065;BME280;20339;49.754;20.158;2023-06-22T10:35:52;97026.93;;;26.70;64.58
34065;BME280;20339;49.754;20.158;2023-06-22T10:41:26;97010.81;;;26.82;64.45
34065;BME280;20339;49.754;20.158;2023-06-22T10:47:04;97017.31;;;27.02;65.02
34065;BME280;20339;49.754;20.158;2023-06-22T10:49:40;97016.95;;;27.13;64.71
34065;BME280;20339;49.754;20.158;2023-06-22T10:52:16;97013.89;;;27.02;63.68
34065;BME280;20339;49.754;20.158;2023-06-22T10:54:49;97010.39;;;26.94;64.12
34065;BME280;20339;49.754;20.158;2023-06-22T11:00:17;97003.86;;;26.95;64.29
34065;BME280;20339;49.754;20.158;2023-06-22T11:02:49;97003.63;;;26.87;64.32
34065;BME280;20339;49.754;20.158;2023-06-22T11:05:23;97001.64;;;26.82;64.13
34065;BME280;20339;49.754;20.158;2023-06-22T11:08:11;97003.61;;;26.69;64.07
34065;BME280;20339;49.754;20.158;2023-06-22T11:10:45;97002.44;;;26.69;64.28
34065;BME280;20339;49.754;20.158;2023-06-22T11:13:20;96998.39;;;26.83;64.34
34065;BME280;20339;49.754;20.158;2023-06-22T11:15:58;96998.58;;;27.03;64.30
34065;BME280;20339;49.754;20.158;2023-06-22T11:18:38;96989.92;;;27.18;63.97
34065;BME280;20339;49.754;20.158;2023-06-22T11:21:28;96986.33;;;27.27;63.76
34065;BME280;20339;49.754;20.158;2023-06-22T11:27:19;96996.02;;;27.22;62.65
34065;BME280;20339;49.754;20.158;2023-06-22T11:30:02;96989.29;;;27.27;62.55
34065;BME280;20339;49.754;20.158;2023-06-22T11:32:41;96980.56;;;27.35;62.11
34065;BME280;20339;49.754;20.158;2023-06-22T11:35:16;96979.08;;;27.47;62.30
34065;BME280;20339;49.754;20.158;2023-06-22T11:37:56;96975.79;;;27.66;61.87
34065;BME280;20339;49.754;20.158;2023-06-22T11:40:28;96971.05;;;27.80;61.42
34065;BME280;20339;49.754;20.158;2023-06-22T11:43:01;96974.95;;;27.81;61.39
34065;BME280;20339;49.754;20.158;2023-06-22T11:45:32;96973.08;;;27.84;61.55
34065;BME280;20339;49.754;20.158;2023-06-22T11:48:11;96973.91;;;27.92;62.21
34065;BME280;20339;49.754;20.158;2023-06-22T11:50:42;96967.81;;;28.03;61.54
34065;BME280;20339;49.754;20.158;2023-06-22T11:53:14;96967.72;;;28.00;61.48
34065;BME280;20339;49.754;20.158;2023-06-22T11:55:52;96970.17;;;27.93;61.71
34065;BME280;20339;49.754;20.158;2023-06-22T11:58:24;96965.15;;;27.83;61.56
34065;BME280;20339;49.754;20.158;2023-06-22T12:00:57;96963.27;;;27.68;61.00
34065;BME280;20339;49.754;20.158;2023-06-22T12:03:35;96960.29;;;27.51;60.94
34065;BME280;20339;49.754;20.158;2023-06-22T12:06:19;96960.46;;;27.43;61.53
34065;BME280;20339;49.754;20.158;2023-06-22T12:09:03;96959.35;;;27.41;61.65
34065;BME280;20339;49.754;20.158;2023-06-22T12:11:42;96960.11;;;27.37;61.13
34065;BME280;20339;49.754;20.158;2023-06-22T12:14:14;96955.76;;;27.26;60.73
34065;BME280;20339;49.754;20.158;2023-06-22T12:16:51;96956.73;;;27.19;60.71
34065;BME280;20339;49.754;20.158;2023-06-22T12:19:25;96957.15;;;27.13;60.60
34065;BME280;20339;49.754;20.158;2023-06-22T12:22:22;96956.73;;;27.09;60.29
34065;BME280;20339;49.754;20.158;2023-06-22T12:25:02;96956.68;;;27.15;60.60
34065;BME280;20339;49.754;20.158;2023-06-22T12:27:39;96952.22;;;27.17;60.66
34065;BME280;20339;49.754;20.158;2023-06-22T12:30:19;96952.56;;;27.16;60.75
34065;BME280;20339;49.754;20.158;2023-06-22T12:32:56;96956.31;;;27.17;60.88
34065;BME280;20339;49.754;20.158;2023-06-22T12:35:34;96950.97;;;27.08;60.53
34065;BME280;20339;49.754;20.158;2023-06-22T12:38:09;96947.20;;;26.98;60.56
34065;BME280;20339;49.754;20.158;2023-06-22T12:40:45;96947.77;;;26.90;60.31
34065;BME280;20339;49.754;20.158;2023-06-22T12:43:20;96948.23;;;26.90;60.42
34065;BME280;20339;49.754;20.158;2023-06-22T12:45:58;96945.90;;;26.89;60.45
34065;BME280;20339;49.754;20.158;2023-06-22T12:48:35;96946.24;;;26.94;61.05
34065;BME280;20339;49.754;20.158;2023-06-22T12:51:19;96943.63;;;26.99;60.46
34065;BME280;20339;49.754;20.158;2023-06-22T12:53:56;96944.33;;;27.03;60.13
34065;BME280;20339;49.754;20.158;2023-06-22T12:56:28;96940.31;;;27.07;60.43
34065;BME280;20339;49.754;20.158;2023-06-22T12:59:06;96936.02;;;27.04;59.76
34065;BME280;20339;49.754;20.158;2023-06-22T13:01:44;96933.15;;;27.00;59.83
34065;BME280;20339;49.754;20.158;2023-06-22T13:04:19;96923.98;;;27.06;60.51
34065;BME280;20339;49.754;20.158;2023-06-22T13:06:58;96921.41;;;27.08;60.30
34065;BME280;20339;49.754;20.158;2023-06-22T13:09:35;96919.04;;;27.13;60.92
34065;BME280;20339;49.754;20.158;2023-06-22T13:12:15;96913.91;;;27.25;60.51
34065;BME280;20339;49.754;20.158;2023-06-22T13:14:55;96908.92;;;27.22;60.08
34065;BME280;20339;49.754;20.158;2023-06-22T13:17:26;96910.54;;;27.09;59.90
34065;BME280;20339;49.754;20.158;2023-06-22T13:20:07;96907.70;;;26.99;60.05
34065;BME280;20339;49.754;20.158;2023-06-22T13:22:39;96908.22;;;26.92;59.99
34065;BME280;20339;49.754;20.158;2023-06-22T13:25:17;96907.30;;;26.94;60.36
34065;BME280;20339;49.754;20.158;2023-06-22T13:27:52;96904.81;;;26.95;60.03
34065;BME280;20339;49.754;20.158;2023-06-22T13:30:29;96904.95;;;26.91;60.14
34065;BME280;20339;49.754;20.158;2023-06-22T13:33:10;96904.40;;;26.91;60.17
34065;BME280;20339;49.754;20.158;2023-06-22T13:35:49;96904.56;;;26.92;60.10
34065;BME280;20339;49.754;20.158;2023-06-22T13:38:25;96906.92;;;26.97;60.28
34065;BME280;20339;49.754;20.158;2023-06-22T13:41:13;96901.77;;;27.03;60.62
34065;BME280;20339;49.754;20.158;2023-06-22T13:44:03;96898.09;;;27.21;61.36
34065;BME280;20339;49.754;20.158;2023-06-22T13:46:46;96899.11;;;27.34;60.34
34065;BME280;20339;49.754;20.158;2023-06-22T13:49:23;96901.96;;;27.44;60.24
34065;BME280;20339;49.754;20.158;2023-06-22T13:52:03;96908.15;;;27.52;59.82
34065;BME280;20339;49.754;20.158;2023-06-22T13:54:58;96904.73;;;27.50;59.28